Hermosa, South Dakota
Current Conditions -  °F | °C
As of 1:52 PM on Thursday 27 Nov 2014 (Local Time) from KRAP Reporting Station
Clear Clear  
Wind Chill: 27°   Ceiling: Unl
Heat Index: 34°   Visibility: 10mi
Dew Point: 27°   Wind: 8mph
Humidity: 75%   Direction: 160°SSE
Pressure: 29.91"   Gusts: NA
Location:  43.84°N, 103.19°W
Report Text: KRAP 272052Z 16007KT 10SM CLR 01/M03 A2991 RMK AO2 SLP165 T00111028 56034
Loading
Personal Weather Stations






























Interactive Weather Map New forecast layout! Learn more

10-Day Weather Forecast

Advertisements
Track Severe Weather on mobile